Main page
METAR-TAF:

METAR-TAF

Airports :

Griffiss International Airport

Rome, New York, United States

latitude: 43-14N, longitude: 075-24W, elevation: 505 ft

Current weather observation

The report was made 41 minutes ago, at 04:53 UTC
Calm wind
Temperature 27°F
Humidity 68%
Pressure 30.33 in. Hg
Visibility: 10 miles
Clear sky

METAR: KRME 240453Z AUTO 00000KT 10SM CLR M03/M08 A3033 RMK AO2 SLP277 T10331078 400331106

Time: 00:34 (05:34 UTC)

Forecast

The report was made 6 hours and 14 minutes ago, at 23:20 UTC
Forecast valid from 24 at 00 UTC to 24 at 24 UTC
Wind 5 mph from the East
Visibility: 6 miles
Broken clouds at a height of 20000 ft

TAF: KRME 232320Z 2400/2424 10004KT P6SM BKN200

Weather observations and forecasts of more than 4000 airports (METAR and TAF reports).

The available stations are represented by yellow and red dots on the map.

Hover mouse over dot to see the name of the station.

Then click to see weather observations and forecasts.

To change the map : click on the green buttons with a black cross to zoom in, on the green button with a dash to zoom out, or on the green arrows for adjacent maps.


METAR-TAF: